Time;durP1;ratioP1;P1;durP2;ratioP2;P2;SDS_P1;SDS_P2;PMS_P1;PMS_P2;Temp;Humidity;BMP_temperature;BMP_pressure;BME280_temperature;BME280_humidity;BME280_pressure;Samples;Min_cycle;Max_cycle;Signal;HPM_P1;HPM_P2
2023/06/07 00:00:55;;;;;;;4.88;2.28;;;;;;;;;;6173696;23;20009;-80
2023/06/07 00:03:24;;;;;;;3.90;2.38;;;;;;;;;;6199293;23;20004;-81
2023/06/07 00:05:50;;;;;;;7.50;2.40;;;;;;;;;;6199000;23;20084;-80
2023/06/07 00:08:18;;;;;;;3.40;2.25;;;;;;;;;;6199243;23;20330;-83
2023/06/07 00:10:44;;;;;;;3.83;2.20;;;;;;;;;;6197721;23;20009;-80
2023/06/07 00:13:11;;;;;;;6.53;2.63;;;;;;;;;;6224379;23;20079;-79
2023/06/07 00:15:37;;;;;;;4.78;2.15;;;;;;;;;;6222828;23;20396;-81
2023/06/07 00:18:03;;;;;;;5.63;2.70;;;;;;;;;;6222281;23;20323;-79
2023/06/07 00:20:30;;;;;;;3.42;2.22;;;;;;;;;;6196455;23;20001;-79
2023/06/07 00:22:56;;;;;;;5.93;2.60;;;;;;;;;;6195721;23;20091;-80
2023/06/07 00:25:26;;;;;;;7.65;2.50;;;;;;;;;;6196070;23;20005;-79
2023/06/07 00:27:54;;;;;;;3.92;2.80;;;;;;;;;;6220723;23;19997;-80
2023/06/07 00:30:21;;;;;;;4.28;2.70;;;;;;;;;;6192926;23;20008;-78
2023/06/07 00:32:47;;;;;;;5.57;2.50;;;;;;;;;;6194072;23;20318;-79
2023/06/07 00:35:13;;;;;;;5.57;3.00;;;;;;;;;;6194270;23;20057;-79
2023/06/07 00:37:42;;;;;;;4.75;3.08;;;;;;;;;;6222465;23;20008;-79
2023/06/07 00:40:09;;;;;;;4.88;2.80;;;;;;;;;;6197271;23;19996;-80
2023/06/07 00:42:37;;;;;;;4.55;2.40;;;;;;;;;;6174135;23;20009;-79
2023/06/07 00:45:03;;;;;;;5.25;2.60;;;;;;;;;;6198000;23;20000;-80
2023/06/07 00:47:30;;;;;;;5.18;2.55;;;;;;;;;;6198040;23;20004;-80
2023/06/07 00:49:56;;;;;;;4.55;2.72;;;;;;;;;;6226551;23;20012;-78
2023/06/07 00:52:22;;;;;;;4.07;2.33;;;;;;;;;;6225746;23;20005;-79
2023/06/07 00:54:49;;;;;;;6.28;2.80;;;;;;;;;;6199294;23;20007;-78
2023/06/07 00:57:15;;;;;;;4.72;2.40;;;;;;;;;;6197561;23;20008;-84
2023/06/07 00:59:42;;;;;;;5.35;2.35;;;;;;;;;;6197181;23;20005;-85
2023/06/07 01:02:08;;;;;;;5.18;2.70;;;;;;;;;;6225192;23;19993;-80
2023/06/07 01:04:40;;;;;;;5.93;2.85;;;;;;;;;;6222699;23;20023;-79
2023/06/07 01:07:07;;;;;;;5.03;2.78;;;;;;;;;;6222197;23;20025;-80
2023/06/07 01:09:34;;;;;;;5.55;2.80;;;;;;;;;;6196496;23;20020;-80
2023/06/07 01:12:01;;;;;;;4.70;2.55;;;;;;;;;;6224534;23;20026;-79
2023/06/07 01:14:28;;;;;;;4.72;2.58;;;;;;;;;;6225374;23;20007;-80
2023/06/07 01:16:56;;;;;;;4.35;2.63;;;;;;;;;;6224914;23;20041;-80
2023/06/07 01:19:25;;;;;;;4.05;2.65;;;;;;;;;;6225257;23;20001;-81
2023/06/07 01:21:54;;;;;;;3.70;2.53;;;;;;;;;;6225291;23;20131;-82
2023/06/07 01:24:21;;;;;;;5.67;2.60;;;;;;;;;;6224924;23;19996;-79
2023/06/07 01:26:48;;;;;;;4.55;2.40;;;;;;;;;;6224291;23;20004;-78
2023/06/07 01:29:15;;;;;;;4.13;2.58;;;;;;;;;;6223922;23;20028;-79
2023/06/07 01:31:42;;;;;;;4.88;2.60;;;;;;;;;;6223665;23;20445;-80
2023/06/07 01:34:09;;;;;;;6.43;3.03;;;;;;;;;;6223988;23;20028;-79
2023/06/07 01:36:35;;;;;;;8.32;2.65;;;;;;;;;;6224312;23;20000;-79
2023/06/07 01:39:02;;;;;;;4.78;2.65;;;;;;;;;;6223706;23;20000;-81
2023/06/07 01:41:30;;;;;;;4.93;2.80;;;;;;;;;;6224156;23;20500;-79
2023/06/07 01:44:00;;;;;;;5.90;2.90;;;;;;;;;;6224435;23;20060;-81
2023/06/07 01:46:26;;;;;;;4.70;2.30;;;;;;;;;;6197779;23;20063;-80
2023/06/07 01:48:53;;;;;;;5.15;2.60;;;;;;;;;;6224029;23;20313;-81
2023/06/07 01:51:19;;;;;;;5.15;2.72;;;;;;;;;;6195851;23;20012;-78
2023/06/07 01:53:49;;;;;;;5.35;2.80;;;;;;;;;;6193750;23;20009;-80
2023/06/07 01:56:25;;;;;;;6.43;2.85;;;;;;;;;;6220834;23;19997;-81
2023/06/07 01:59:02;;;;;;;4.05;2.63;;;;;;;;;;6221622;23;20055;-80
2023/06/07 02:01:35;;;;;;;4.90;2.50;;;;;;;;;;6223197;23;20027;-82
2023/06/07 02:04:05;;;;;;;5.22;2.30;;;;;;;;;;6198413;23;20028;-82
2023/06/07 02:06:37;;;;;;;4.82;2.40;;;;;;;;;;6228055;23;20001;-78
2023/06/07 02:09:10;;;;;;;3.90;2.30;;;;;;;;;;6226808;23;20451;-78
2023/06/07 02:11:38;;;;;;;5.20;2.80;;;;;;;;;;6201526;23;20476;-79
2023/06/07 02:14:05;;;;;;;5.20;2.60;;;;;;;;;;6176506;23;20024;-78
2023/06/07 02:16:37;;;;;;;6.80;3.03;;;;;;;;;;6201300;23;20028;-78
2023/06/07 02:19:06;;;;;;;4.35;2.60;;;;;;;;;;6217486;22;19996;-86
2023/06/07 02:21:37;;;;;;;6.65;2.65;;;;;;;;;;6193387;22;19997;-85
2023/06/07 02:24:05;;;;;;;4.53;2.30;;;;;;;;;;6217348;23;20009;-81
2023/06/07 02:26:35;;;;;;;8.00;2.75;;;;;;;;;;6212188;23;20004;-80
2023/06/07 02:29:02;;;;;;;7.90;2.15;;;;;;;;;;6201635;23;20011;-81
2023/06/07 02:31:41;;;;;;;4.50;2.67;;;;;;;;;;6202284;23;20051;-80
2023/06/07 02:34:10;;;;;;;4.30;2.30;;;;;;;;;;6198602;23;20013;-80
2023/06/07 02:36:40;;;;;;;5.63;2.60;;;;;;;;;;6170001;23;20008;-80
2023/06/07 02:39:07;;;;;;;;;;;;;;;;;;6228941;23;20008;-80
2023/06/07 02:41:37;;;;;;;5.85;3.20;;;;;;;;;;6228619;23;19923;-81
2023/06/07 02:44:05;;;;;;;4.05;2.50;;;;;;;;;;6229840;23;20009;-80
2023/06/07 02:46:31;;;;;;;3.97;2.63;;;;;;;;;;6230769;23;20017;-80
2023/06/07 02:48:57;;;;;;;5.18;2.72;;;;;;;;;;6231264;23;20005;-80
2023/06/07 02:51:26;;;;;;;5.15;2.90;;;;;;;;;;6202987;23;20008;-80
2023/06/07 02:53:56;;;;;;;6.85;2.53;;;;;;;;;;6230006;23;20306;-80
2023/06/07 02:56:23;;;;;;;5.05;2.70;;;;;;;;;;6204120;23;20031;-81
2023/06/07 02:58:56;;;;;;;4.63;2.50;;;;;;;;;;6222191;23;20008;-80
2023/06/07 03:01:27;;;;;;;4.32;2.45;;;;;;;;;;6200595;23;20005;-81
2023/06/07 03:03:53;;;;;;;4.82;2.35;;;;;;;;;;6178865;23;20009;-80
2023/06/07 03:06:21;;;;;;;6.70;2.65;;;;;;;;;;6201067;23;20012;-79
2023/06/07 03:08:48;;;;;;;4.00;2.47;;;;;;;;;;6203769;23;20095;-80
2023/06/07 03:14:20;;;;;;;5.70;2.90;;;;;;;;;;6219303;23;20024;-81
2023/06/07 03:16:50;;;;;;;5.43;2.45;;;;;;;;;;6205554;23;20079;-81
2023/06/07 03:19:17;;;;;;;;;;;16.40;82.90;;;;;;6232072;23;20017;-80
2023/06/07 03:21:44;;;;;;;4.00;2.80;;;;;;;;;;6228972;23;20428;-81
2023/06/07 03:24:17;;;;;;;8.23;2.55;;;;;;;;;;6215236;23;20005;-80
2023/06/07 03:26:44;;;;;;;3.40;2.40;;;;;;;;;;6232139;23;20024;-80
2023/06/07 03:29:13;;;;;;;6.72;2.38;;;;;;;;;;6179579;23;20016;-82
2023/06/07 03:31:42;;;;;;;8.75;2.88;;;;;;;;;;6203563;23;20008;-79
2023/06/07 03:34:08;;;;;;;4.55;2.80;;;;;;;;;;6231892;23;20004;-80
2023/06/07 03:36:35;;;;;;;5.00;2.78;;;;;;;;;;6231048;23;20001;-81
2023/06/07 03:39:02;;;;;;;7.10;2.63;;;;;;;;;;6202602;23;20030;-80
2023/06/07 03:41:34;;;;;;;7.72;2.90;;;;;;;;;;6230273;23;20074;-80
2023/06/07 03:44:00;;;;;;;7.10;2.67;;;;;;;;;;6204254;23;20090;-80
2023/06/07 03:46:26;;;;;;;5.53;2.85;;;;;;;;;;6230372;23;20008;-80
2023/06/07 03:48:53;;;;;;;4.35;2.58;;;;;;;;;;6204745;23;20005;-80
2023/06/07 03:51:20;;;;;;;8.45;2.97;;;;;;;;;;6206037;23;20004;-80
2023/06/07 03:53:48;;;;;;;5.50;2.60;;;;;;;;;;6205534;23;20012;-80
2023/06/07 03:56:29;;;;;;;4.00;2.42;;;;;;;;;;6230295;23;20008;-80
2023/06/07 03:59:13;;;;;;;5.45;2.47;;;;;;;;;;6230596;23;20020;-80
2023/06/07 04:01:40;;;;;;;3.92;2.58;;;;;;;;;;6241824;22;20004;-86
2023/06/07 04:04:12;;;;;;;4.47;2.40;;;;;;;;;;6217362;23;20003;-82
2023/06/07 04:06:39;;;;;;;5.82;2.75;;;;;;;;;;6243136;23;19981;-83
2023/06/07 04:09:07;;;;;;;5.88;2.80;;;;;;;;;;6242946;23;20022;-81
2023/06/07 04:11:33;;;;;;;3.97;2.38;;;;;;;;;;6216497;23;20008;-81
2023/06/07 04:13:59;;;;;;;4.95;2.30;;;;;;;;;;6243323;23;19988;-80
2023/06/07 04:16:25;;;;;;;5.88;3.47;;;;;;;;;;6217437;23;20001;-80
2023/06/07 04:18:53;;;;;;;5.72;2.97;;;;;;;;;;6243001;23;19981;-84
2023/06/07 04:21:20;;;;;;;6.00;2.80;;;;;;;;;;6217139;23;20024;-81
2023/06/07 04:23:46;;;;;;;6.43;2.92;;;;;;;;;;6216698;23;20001;-81
2023/06/07 04:26:15;;;;;;;10.60;3.15;;;;;;;;;;6240618;23;19997;-80
2023/06/07 04:28:42;;;;;;;3.75;2.50;;;;;;;;;;6232000;23;19997;-80
2023/06/07 04:31:12;;;;;;;5.60;2.75;;;;;;;;;;6233246;23;20050;-80
2023/06/07 04:33:39;;;;;;;4.30;2.70;;;;;;;;;;6213176;23;20039;-83
2023/06/07 04:36:08;;;;;;;5.35;3.08;;;;;;;;;;6214976;23;20001;-82
2023/06/07 04:38:34;;;;;;;5.85;3.08;;;;;;;;;;6216450;23;20015;-81
2023/06/07 04:41:06;;;;;;;5.65;2.72;;;;;;;;;;6242385;23;20008;-82
2023/06/07 04:43:36;;;;;;;4.85;2.80;;;;;;;;;;6242379;23;20022;-82
2023/06/07 04:46:02;;;;;;;7.55;3.08;;;;;;;;;;6216620;23;19997;-81
2023/06/07 04:48:29;;;;;;;6.13;3.00;;;;;;;;;;6240000;23;20004;-82
2023/06/07 04:51:18;;;;;;;4.72;2.50;;;;;;;;;;6238477;23;20027;-81
2023/06/07 04:53:46;;;;;;;4.95;3.00;;;;;;;;;;6238615;23;20024;-83
2023/06/07 04:56:12;;;;;;;5.07;3.13;;;;;;;;;;6241435;23;20007;-79
2023/06/07 04:58:40;;;;;;;7.25;4.05;;;;;;;;;;6214322;23;20087;-82
2023/06/07 05:01:09;;;;;;;6.10;3.60;;;;;;;;;;6211817;23;20016;-84
2023/06/07 05:04:01;;;;;;;5.30;3.28;;;;;;;;;;6238664;22;20024;-85
2023/06/07 05:06:47;;;;;;;4.13;2.83;;;;;;;;;;6238527;22;20049;-86
2023/06/07 05:09:13;;;;;;;6.20;3.63;;;;;;;;;;6213360;22;20012;-83
2023/06/07 05:11:42;;;;;;;6.30;3.10;;;;;;;;;;6214641;23;20015;-82
2023/06/07 05:14:08;;;;;;;5.57;2.83;;;;;;;;;;6240208;23;20065;-86
2023/06/07 05:16:35;;;;;;;6.13;3.10;;;;;;;;;;6239819;23;19993;-80
2023/06/07 05:19:03;;;;;;;5.47;2.58;;;;;;;;;;6238274;23;20016;-83
2023/06/07 05:21:29;;;;;;;4.40;2.80;;;;;;;;;;6212459;23;20020;-81
2023/06/07 05:23:56;;;;;;;6.20;2.72;;;;;;;;;;6212245;23;20016;-86
2023/06/07 05:26:22;;;;;;;5.60;2.80;;;;;;;;;;6239381;22;20015;-87
2023/06/07 05:28:48;;;;;;;6.63;2.90;;;;;;;;;;6239878;23;19992;-83
2023/06/07 05:31:15;;;;;;;5.30;2.60;;;;;;;;;;6238471;22;20009;-85
2023/06/07 05:33:41;;;;;;;5.43;2.20;;;;;;;;;;6213805;23;19996;-84
2023/06/07 05:36:07;;;;;;;9.93;2.70;;;;;;;;;;6239573;22;20009;-85
2023/06/07 05:38:33;;;;;;;6.53;2.58;;;;;;;;;;6240375;22;20108;-83
2023/06/07 05:40:59;;;;;;;5.88;2.40;;;;;;;;;;6240383;22;20004;-87
2023/06/07 05:43:25;;;;;;;5.50;2.50;;;;;;;;;;6216029;22;19985;-87
2023/06/07 05:45:51;;;;;;;5.75;3.08;;;;;;;;;;6241001;22;19989;-88
2023/06/07 05:48:18;;;;;;;3.90;2.50;;;;;;;;;;6241125;22;19989;-87
2023/06/07 05:50:44;;;;;;;5.57;2.88;;;;;;;;;;6214007;22;20104;-85
2023/06/07 05:53:10;;;;;;;6.20;2.60;;;;;;;;;;6238727;23;20005;-86
2023/06/07 05:55:37;;;;;;;5.97;2.50;;;;;;;;;;6210419;23;20055;-85
2023/06/07 05:58:03;;;;;;;4.25;2.58;;;;;;;;;;6212131;23;20022;-85
2023/06/07 06:00:30;;;;;;;4.22;3.03;;;;;;;;;;6210956;23;19984;-83
2023/06/07 06:02:56;;;;;;;3.65;2.60;;;;;;;;;;6238412;23;20009;-82
2023/06/07 06:05:27;;;;;;;3.65;2.63;;;;;;;;;;6209841;23;19993;-85
2023/06/07 06:07:53;;;;;;;4.85;2.70;;;;;;;;;;6211141;23;20011;-82
2023/06/07 06:10:19;;;;;;;5.30;2.35;;;;;;;;;;6208597;23;20013;-83
2023/06/07 06:12:46;;;;;;;4.05;2.53;;;;;;;;;;6237402;23;20323;-87
2023/06/07 06:15:12;;;;;;;4.32;2.67;;;;;;;;;;6236700;23;20322;-84
2023/06/07 06:17:38;;;;;;;3.95;2.30;;;;;;;;;;6236678;23;20011;-80
2023/06/07 06:20:04;;;;;;;3.92;2.45;;;;;;;;;;6234037;23;19997;-79
2023/06/07 06:22:31;;;;;;;5.15;2.80;;;;;;;;;;6182324;23;20016;-85
2023/06/07 06:24:59;;;;;;;4.00;2.53;;;;;;;;;;6236733;23;20008;-81
2023/06/07 06:27:25;;;;;;;5.75;2.80;;;;;;;;;;6211612;23;20001;-85
2023/06/07 06:29:51;;;;;;;6.03;2.67;;;;;;;;;;6237449;23;20056;-81
2023/06/07 06:32:17;;;;;;;4.93;2.30;;;;;;;;;;6233312;23;20030;-80
2023/06/07 06:34:44;;;;;;;6.15;2.65;;;;;;;;;;6231949;23;20464;-83
2023/06/07 06:37:10;;;;;;;4.95;2.75;;;;;;;;;;6207457;23;20019;-84
2023/06/07 06:39:36;;;;;;;5.18;2.50;;;;;;;;;;6236987;23;20000;-86
2023/06/07 06:42:02;;;;;;;4.07;2.35;;;;;;;;;;6209174;23;20004;-83
2023/06/07 06:44:28;;;;;;;5.18;2.67;;;;;;;;;;6234471;23;20412;-84
2023/06/07 06:46:55;;;;;;;10.13;2.65;;;;;;;;;;6208959;23;20034;-80
2023/06/07 06:49:21;;;;;;;4.38;2.28;;;;;;;;;;6236017;23;20004;-80
2023/06/07 06:51:47;;;;;;;4.47;2.47;;;;;;;;;;6232203;23;20004;-80
2023/06/07 06:54:13;;;;;;;5.35;2.40;;;;;;;;;;6234201;23;20009;-86
2023/06/07 06:56:39;;;;;;;6.60;2.67;;;;;;;;;;6234050;23;20004;-81
2023/06/07 06:59:05;;;;;;;4.18;2.78;;;;;;;;;;6234947;23;20052;-79
2023/06/07 07:01:52;;;;;;;4.55;2.50;;;;;;;;;;6208143;23;19997;-82
2023/06/07 07:04:18;;;;;;;6.22;3.45;;;;;;;;;;6234679;23;20091;-80
2023/06/07 07:06:44;;;;;;;4.63;2.45;;;;;;;;;;6211059;23;20008;-81
2023/06/07 07:09:11;;;;;;;9.75;2.72;;;;;;;;;;6211384;23;20008;-85
2023/06/07 07:11:37;;;;;;;6.40;2.53;;;;;;;;;;6237655;23;20005;-83
2023/06/07 07:14:03;;;;;;;5.93;2.75;;;;;;;;;;6239689;22;20019;-82
2023/06/07 07:16:31;;;;;;;6.88;2.70;;;;;;;;;;6237748;23;20000;-81
2023/06/07 07:18:57;;;;;;;7.13;4.10;;;;;;;;;;6239202;23;20009;-83
2023/06/07 07:21:23;;;;;;;3.95;2.40;;;;;;;;;;6234663;23;19997;-81
2023/06/07 07:23:49;;;;;;;4.57;2.40;;;;;;;;;;6205361;23;20005;-84
2023/06/07 07:26:15;;;;;;;6.60;2.97;;;;;;;;;;6231745;23;20360;-82
2023/06/07 07:28:41;;;;;;;5.22;2.80;;;;;;;;;;6232905;23;20076;-79
2023/06/07 07:31:07;;;;;;;6.47;3.15;;;;;;;;;;6233232;23;20008;-82
2023/06/07 07:33:34;;;;;;;5.10;2.65;;;;;;;;;;6208629;23;20013;-85
2023/06/07 07:36:00;;;;;;;5.03;2.53;;;;;;;;;;6208039;23;20007;-84
2023/06/07 07:38:26;;;;;;;5.57;2.53;;;;;;;;;;6208628;23;20013;-81
2023/06/07 07:40:52;;;;;;;9.30;3.33;;;;;;;;;;6235466;23;20028;-81
2023/06/07 07:43:18;;;;;;;7.00;3.15;;;;;;;;;;6237006;23;20008;-79
2023/06/07 07:45:44;;;;;;;4.28;2.65;;;;;;;;;;6235421;23;20009;-79
2023/06/07 07:48:11;;;;;;;4.95;2.65;;;;;;;;;;6237777;22;20008;-87
2023/06/07 07:50:38;;;;;;;5.25;2.78;;;;;;;;;;6241001;22;20031;-87
2023/06/07 07:53:05;;;;;;;4.50;2.65;;;;;;;;;;6217238;23;20019;-88
2023/06/07 07:55:34;;;;;;;8.98;2.88;;;;;;;;;;6242455;22;19997;-86
2023/06/07 07:58:00;;;;;;;5.85;3.20;;;;;;;;;;6214671;23;20009;-81
2023/06/07 08:00:27;;;;;;;4.70;3.67;;;;;;;;;;6232781;23;20574;-81
2023/06/07 08:02:53;;;;;;;5.07;2.70;;;;;;;;;;6233898;23;20155;-80
2023/06/07 08:05:19;;;;;;;4.00;2.50;;;;;;;;;;6233109;23;19988;-84
2023/06/07 08:07:45;;;;;;;6.40;2.88;;;;;;;;;;6206752;23;19997;-82
2023/06/07 08:10:11;;;;;;;4.35;2.75;;;;;;;;;;6234875;23;20000;-81
2023/06/07 08:12:40;;;;;;;11.13;3.20;;;;;;;;;;6205877;23;20013;-80
2023/06/07 08:15:07;;;;;;;4.23;2.80;;;;;;;;;;6233182;23;20027;-80
2023/06/07 08:17:36;;;;;;;5.07;2.90;;;;;;;;;;6233748;23;20000;-79
2023/06/07 08:20:04;;;;;;;7.18;2.50;;;;;;;;;;6233144;23;19997;-82
2023/06/07 08:22:53;;;;;;;5.35;2.70;;;;;;;;;;6206737;23;20055;-82
2023/06/07 08:25:19;;;;;;;4.93;2.95;;;;;;;;;;6208189;23;20027;-84
2023/06/07 08:27:51;;;;;;;3.78;2.60;;;;;;;;;;6206743;23;20012;-84
2023/06/07 08:30:17;;;;;;;4.78;3.00;;;;;;;;;;6232477;23;20008;-82
2023/06/07 08:32:47;;;;;;;6.28;2.75;;;;;;;;;;6234596;23;20005;-81
2023/06/07 08:35:13;;;;;;;4.38;3.03;;;;;;;;;;6234655;23;20004;-79
2023/06/07 08:37:40;;;;;;;6.28;3.28;;;;;;;;;;6232932;23;20004;-80
2023/06/07 08:40:08;;;;;;;6.28;3.08;;;;;;;;;;6207455;23;20008;-80
2023/06/07 08:42:34;;;;;;;5.63;2.90;;;;;;;;;;6236772;23;20076;-82
2023/06/07 08:45:00;;;;;;;5.60;3.38;;;;;;;;;;6212309;23;20005;-80
2023/06/07 08:47:28;;;;;;;8.23;3.03;;;;;;;;;;6208525;23;20004;-80
2023/06/07 08:49:57;;;;;;;6.93;3.03;;;;;;;;;;6210794;23;19988;-83
2023/06/07 08:52:24;;;;;;;6.25;3.20;;;;;;;;;;6233589;23;20012;-80
2023/06/07 08:54:52;;;;;;;9.00;3.92;;;;;;;;;;6206613;23;19996;-80
2023/06/07 08:57:19;;;;;;;9.75;3.45;;;;;;;;;;6207077;23;20020;-82
2023/06/07 08:59:49;;;;;;;7.97;3.15;;;;;;;;;;6234017;22;20008;-86
2023/06/07 09:02:15;;;;;;;5.00;3.00;;;;;;;;;;6216051;22;20012;-85
2023/06/07 09:04:42;;;;;;;7.20;3.47;;;;;;;;;;6241574;22;20018;-85
2023/06/07 09:07:11;;;;;;;6.18;3.28;;;;;;;;;;6217124;22;20003;-86
2023/06/07 09:09:41;;;;;;;15.10;7.85;;;;;;;;;;6242313;22;20007;-85
2023/06/07 09:12:08;;;;;;;6.85;4.00;;;;;;;;;;6216343;22;20008;-86
2023/06/07 09:14:37;;;;;;;9.38;6.78;;;;;;;;;;6216832;22;20009;-86
2023/06/07 09:17:08;;;;;;;6.53;3.20;;;;;;;;;;6243230;22;20186;-85
2023/06/07 09:19:34;;;;;;;6.63;3.13;;;;;;;;;;6216048;22;19996;-86
2023/06/07 09:22:05;;;;;;;6.05;3.40;;;;;;;;;;6215768;22;19985;-87
2023/06/07 09:24:32;;;;;;;5.38;3.45;;;;;;;;;;6215688;22;19985;-85
2023/06/07 09:27:00;;;;;;;6.88;3.13;;;;;;;;;;6216201;22;20001;-87
2023/06/07 09:29:28;;;;;;;9.75;4.28;;;;;;;;;;6217577;22;20020;-85
2023/06/07 09:31:56;;;;;;;5.88;3.35;;;;;;;;;;6237341;22;19993;-86
2023/06/07 09:34:28;;;;;;;6.47;3.50;;;;;;;;;;6243087;22;20043;-86
2023/06/07 09:37:00;;;;;;;4.38;3.30;;;;;;;;;;6216448;22;20338;-85
2023/06/07 09:39:52;;;;;;;6.45;3.17;;;24.80;68.80;;;;;;6205698;23;20430;-79
2023/06/07 09:42:26;;;;;;;;;;;;;;;;;;6231718;23;20115;-80
2023/06/07 12:30:02;;;;;;;8.40;3.80;;;;;;;;;;6221185;23;20453;-80
2023/06/07 12:32:34;;;;;;;7.47;3.22;;;27.80;62.90;;;;;;6192149;23;20327;-79
2023/06/07 12:35:04;;;;;;;7.32;3.00;;;;;;;;;;6192344;23;20095;-79
2023/06/07 12:37:33;;;;;;;5.03;2.80;;;27.70;62.50;;;;;;6216862;23;20004;-79
2023/06/07 12:39:59;;;;;;;4.22;2.97;;;;;;;;;;6216630;23;20000;-79
2023/06/07 12:42:26;;;;;;;4.93;3.00;;;;;;;;;;6217175;23;20079;-79
2023/06/07 12:44:54;;;;;;;6.63;2.90;;;;;;;;;;6189464;23;20005;-79
2023/06/07 12:47:20;;;;;;;7.53;3.17;;;;;;;;;;6216890;23;20051;-79
2023/06/07 12:49:46;;;;;;;6.43;2.88;;;;;;;;;;6217213;23;20055;-78
2023/06/07 12:52:13;;;;;;;6.15;2.70;;;;;;;;;;6217659;23;20023;-79
2023/06/07 12:54:38;;;;;;;4.97;3.00;;;;;;;;;;6216595;23;20104;-79
2023/06/07 12:57:05;;;;;;;3.38;2.30;;;;;;;;;;6217369;23;20023;-79
2023/06/07 12:59:31;;;;;;;4.40;2.53;;;;;;;;;;6189945;23;20090;-79
2023/06/07 13:01:57;;;;;;;6.13;2.60;;;;;;;;;;6190358;23;20035;-79
2023/06/07 13:04:23;;;;;;;4.18;2.42;;;;;;;;;;6219451;23;20084;-79
2023/06/07 13:06:50;;;;;;;3.60;2.70;;;;;;;;;;6192312;23;20004;-80
2023/06/07 13:09:16;;;;;;;3.40;2.50;;;;;;;;;;6219151;23;20000;-80
2023/06/07 13:11:43;;;;;;;5.88;2.85;;;;;;;;;;6219153;23;20005;-79
2023/06/07 13:14:15;;;;;;;5.93;3.03;;;27.20;62.60;;;;;;6193034;23;20028;-79
2023/06/07 13:16:43;;;;;;;4.78;2.95;;;;;;;;;;6192807;23;20024;-80
2023/06/07 13:19:09;;;;;;;5.32;2.60;;;;;;;;;;6220180;23;20004;-80
2023/06/07 13:21:35;;;;;;;4.18;2.65;;;;;;;;;;6196040;23;20427;-81
2023/06/07 13:24:01;;;;;;;7.45;3.13;;;;;;;;;;6202056;23;20008;-80
2023/06/07 13:26:27;;;;;;;5.60;2.75;;;;;;;;;;6198799;23;20039;-81
2023/06/07 13:28:54;;;;;;;4.93;2.90;;;;;;;;;;6229902;23;20027;-79
2023/06/07 13:31:20;;;;;;;3.55;2.53;;;;;;;;;;6199031;23;20502;-81
2023/06/07 13:33:46;;;;;;;4.57;2.22;;;;;;;;;;6225306;23;20032;-80
2023/06/07 13:36:12;;;;;;;3.75;2.38;;;;;;;;;;6196539;23;20007;-81
2023/06/07 13:38:39;;;;;;;3.85;2.45;;;;;;;;;;6226297;23;20011;-81
2023/06/07 13:41:06;;;;;;;3.97;2.70;;;;;;;;;;6196122;23;20435;-81
2023/06/07 13:43:32;;;;;;;5.82;2.70;;;;;;;;;;6193737;23;20015;-81
2023/06/07 13:45:58;;;;;;;3.83;3.00;;;;;;;;;;6195544;23;20008;-80
2023/06/07 13:48:24;;;;;;;5.65;2.40;;;;;;;;;;6219668;23;20066;-80
2023/06/07 13:50:51;;;;;;;3.65;2.35;;;;;;;;;;6219839;23;20009;-81
2023/06/07 13:53:18;;;;;;;3.13;2.40;;;;;;;;;;6196556;23;20016;-81
2023/06/07 13:55:49;;;;;;;3.63;2.30;;;;;;;;;;6223228;23;20343;-81
2023/06/07 13:58:16;;;;;;;5.35;2.72;;;;;;;;;;6224528;23;20000;-82
2023/06/07 14:00:44;;;;;;;4.30;2.65;;;;;;;;;;6197627;23;20001;-81
2023/06/07 14:03:12;;;;;;;5.37;2.80;;;;;;;;;;6225817;23;20016;-82
2023/06/07 14:05:43;;;;;;;5.80;2.67;;;27.60;62.70;;;;;;6225847;23;20035;-81
2023/06/07 14:08:09;;;;;;;4.50;2.65;;;;;;;;;;6195853;23;20461;-80
2023/06/07 14:10:36;;;;;;;4.32;2.40;;;;;;;;;;6217913;23;20078;-81
2023/06/07 14:13:03;;;;;;;5.10;2.50;;;;;;;;;;6219380;23;20005;-80
2023/06/07 14:15:30;;;;;;;6.57;2.92;;;;;;;;;;6195887;23;20000;-80
2023/06/07 14:17:56;;;;;;;4.45;2.72;;;;;;;;;;6221937;23;20454;-80
2023/06/07 14:20:23;;;;;;;4.68;2.70;;;;;;;;;;6221835;23;20066;-80
2023/06/07 14:22:49;;;;;;;3.83;2.20;;;;;;;;;;6196094;23;20016;-81
2023/06/07 14:25:16;;;;;;;6.30;2.42;;;;;;;;;;6194377;23;20334;-81
2023/06/07 14:27:44;;;;;;;4.13;2.53;;;;;;;;;;6195443;23;20009;-81
2023/06/07 14:30:11;;;;;;;5.63;2.63;;;;;;;;;;6192606;23;20016;-81
2023/06/07 14:32:38;;;;;;;4.90;2.70;;;;;;;;;;6193410;23;20047;-82
2023/06/07 14:35:04;;;;;;;4.78;2.47;;;;;;;;;;6193542;23;20011;-81
2023/06/07 14:37:32;;;;;;;6.13;2.65;;;;;;;;;;6169162;23;20015;-81
2023/06/07 14:39:58;;;;;;;5.25;2.75;;;;;;;;;;6220557;23;20008;-81
2023/06/07 14:42:27;;;;;;;5.53;3.03;;;;;;;;;;6221581;23;19997;-81
2023/06/07 14:44:54;;;;;;;3.55;2.58;;;;;;;;;;6221732;23;19997;-81
2023/06/07 14:47:21;;;;;;;5.68;2.72;;;;;;;;;;6222062;23;20036;-81
2023/06/07 14:49:49;;;;;;;4.93;2.80;;;;;;;;;;6222318;23;20001;-81
2023/06/07 14:52:18;;;;;;;5.00;2.40;;;;;;;;;;6221064;23;20000;-81
2023/06/07 14:54:47;;;;;;;6.15;2.50;;;25.80;66.00;;;;;;6221023;23;20072;-81
2023/06/07 14:57:14;;;;;;;5.10;2.83;;;;;;;;;;6222392;23;20021;-81
2023/06/07 14:59:41;;;;;;;4.38;2.63;;;;;;;;;;6200402;23;20132;-81
2023/06/07 15:02:10;;;;;;;4.40;2.30;;;;;;;;;;6196204;23;20037;-81
2023/06/07 15:04:37;;;;;;;;;;;25.80;66.40;;;;;;6196055;23;20005;-81
2023/06/07 15:07:05;;;;;;;3.47;2.60;;;;;;;;;;6220851;23;19900;-81
2023/06/07 15:09:32;;;;;;;5.10;2.63;;;;;;;;;;6168167;23;20023;-81
2023/06/07 15:11:59;;;;;;;5.63;2.55;;;;;;;;;;6192133;23;20021;-81
2023/06/07 15:14:25;;;;;;;3.97;2.38;;;;;;;;;;6219938;23;20064;-81
2023/06/07 15:16:52;;;;;;;3.05;2.28;;;;;;;;;;6218699;23;20001;-81
2023/06/07 15:19:18;;;;;;;6.55;2.72;;;;;;;;;;6195010;23;20035;-81
2023/06/07 15:21:49;;;;;;;4.90;2.28;;;;;;;;;;6177616;23;20015;-81
2023/06/07 15:24:16;;;;;;;5.03;2.60;;;;;;;;;;6206150;23;20011;-82
2023/06/07 15:26:42;;;;;;;4.50;2.70;;;;;;;;;;6208543;23;19989;-80
2023/06/07 15:29:12;;;;;;;6.78;2.60;;;;;;;;;;6237001;23;20005;-81
2023/06/07 15:31:38;;;;;;;6.68;2.42;;;;;;;;;;6234838;23;20016;-81
2023/06/07 15:34:05;;;;;;;4.70;2.67;;;;;;;;;;6202460;23;20470;-83
2023/06/07 15:36:31;;;;;;;3.72;2.30;;;;;;;;;;6199886;23;20011;-81
2023/06/07 15:38:58;;;;;;;5.00;2.80;;;;;;;;;;6200337;23;20004;-81
2023/06/07 15:41:51;;;;;;;6.20;2.92;;;25.70;66.50;;;;;;6198334;23;20237;-81
2023/06/07 15:44:17;;;;;;;4.88;2.70;;;;;;;;;;6222431;23;20055;-80
2023/06/07 15:46:45;;;;;;;5.63;2.63;;;;;;;;;;6218524;23;20015;-81
2023/06/07 15:49:20;;;;;;;5.25;2.85;;;;;;;;;;6193839;23;20131;-80
2023/06/07 15:51:47;;;;;;;5.55;2.60;;;;;;;;;;6217699;23;20013;-81
2023/06/07 15:54:15;;;;;;;5.05;2.60;;;;;;;;;;6212658;23;20252;-80
2023/06/07 15:56:43;;;;;;;7.55;2.65;;;26.50;64.70;;;;;;6190690;23;20001;-81
2023/06/07 15:59:11;;;;;;;3.88;2.65;;;;;;;;;;6190834;23;20005;-82
2023/06/07 16:01:38;;;;;;;4.63;2.63;;;;;;;;;;6197108;23;20001;-82
2023/06/07 16:04:06;;;;;;;4.90;2.40;;;;;;;;;;6220403;23;20421;-82
2023/06/07 16:06:36;;;;;;;4.03;2.50;;;;;;;;;;6221697;23;20032;-82
2023/06/07 16:09:07;;;;;;;4.45;2.60;;;;;;;;;;6222961;23;20012;-82
2023/06/07 16:11:36;;;;;;;2.97;2.30;;;;;;;;;;6221585;23;20134;-82
2023/06/07 16:14:07;;;;;;;4.45;2.92;;;;;;;;;;6222362;23;20005;-82
2023/06/07 16:16:35;;;;;;;2.88;2.22;;;;;;;;;;6223502;23;20522;-82
2023/06/07 16:19:04;;;;;;;3.53;2.53;;;;;;;;;;6172016;23;20004;-82
2023/06/07 16:21:34;;;;;;;6.93;2.60;;;;;;;;;;6203376;23;20011;-82
2023/06/07 16:24:03;;;;;;;4.65;2.80;;;;;;;;;;6193527;23;20063;-82
2023/06/07 16:26:30;;;;;;;4.22;2.72;;;26.60;64.60;;;;;;6193582;23;20008;-82
2023/06/07 16:28:57;;;;;;;7.15;2.47;;;;;;;;;;6222127;23;20008;-82
2023/06/07 16:31:27;;;;;;;3.88;2.10;;;;;;;;;;6188240;23;20017;-82
2023/06/07 16:33:53;;;;;;;4.75;2.50;;;;;;;;;;6191194;23;20009;-82
2023/06/07 16:36:22;;;;;;;6.82;2.97;;;;;;;;;;6191538;23;20438;-82
2023/06/07 16:38:58;;;;;;;5.20;2.42;;;;;;;;;;6193732;23;19993;-81
2023/06/07 16:41:51;;;;;;;4.50;2.72;;;;;;;;;;6193121;23;20008;-83
2023/06/07 16:45:08;;;;;;;5.28;2.80;;;;;;;;;;6197364;23;20009;-81
2023/06/07 16:47:56;;;;;;;5.50;2.90;;;;;;;;;;6195827;23;20019;-83
2023/06/07 16:51:05;;;;;;;5.32;3.42;;;;;;;;;;6195588;23;20021;-83
2023/06/07 16:54:17;;;;;;;8.88;4.43;;;;;;;;;;6193452;23;20047;-82
2023/06/07 16:57:26;;;;;;;5.78;3.33;;;;;;;;;;6190957;23;20057;-81
2023/06/07 17:00:43;;;;;;;6.00;3.90;;;;;;;;;;6186655;23;20070;-81
2023/06/07 17:03:56;;;;;;;6.28;4.32;;;;;;;;;;6192280;23;20020;-82
2023/06/07 17:07:32;;;;;;;7.38;5.78;;;25.00;68.10;;;;;;6192666;23;20039;-82
2023/06/07 17:10:28;;;;;;;7.95;5.88;;;;;;;;;;6191070;23;20088;-80
2023/06/07 17:13:16;;;;;;;7.50;4.60;;;;;;;;;;6192018;23;20009;-82
2023/06/07 17:16:25;;;;;;;5.15;3.00;;;;;;;;;;6147665;23;20043;-82
2023/06/07 17:19:14;;;;;;;6.85;4.38;;;;;;;;;;6187310;23;20001;-82
2023/06/07 17:22:43;;;;;;;7.05;3.72;;;24.80;68.60;;;;;;6194027;23;20016;-81
2023/06/07 17:25:37;;;;;;;7.43;4.90;;;;;;;;;;6166923;23;20436;-81
2023/06/07 17:28:48;;;;;;;8.73;4.55;;;;;;;;;;6145419;23;20124;-82
2023/06/07 17:31:59;;;;;;;4.30;3.08;;;24.60;71.50;;;;;;6192084;23;20005;-82
2023/06/07 17:34:54;;;;;;;4.57;3.03;;;;;;;;;;6183497;23;20036;-83
2023/06/07 17:37:39;;;;;;;15.27;10.43;;;;;;;;;;6226150;23;20035;-82
2023/06/07 17:40:30;;;;;;;16.98;13.00;;;;;;;;;;6237281;23;19999;-82
2023/06/07 17:43:27;;;;;;;10.43;5.35;;;;;;;;;;6237225;23;20035;-82